createdAt,value
2022-12-26T00:02:01.150Z,55.20
2022-12-26T00:04:52.096Z,46.10
2022-12-26T00:07:19.908Z,56.40
2022-12-26T00:09:48.936Z,52.80
2022-12-26T00:12:17.884Z,52.50
2022-12-26T00:14:47.249Z,51.40
2022-12-26T00:17:16.239Z,55.20
2022-12-26T00:19:45.315Z,51.10
2022-12-26T00:22:15.951Z,56.70
2022-12-26T00:24:44.993Z,51.90
2022-12-26T00:27:14.288Z,50.90
2022-12-26T00:29:43.414Z,45.40
2022-12-26T00:32:12.345Z,46.60
2022-12-26T00:34:41.323Z,46.50
2022-12-26T00:37:10.364Z,45.10
2022-12-26T00:39:39.341Z,49.90
2022-12-26T00:42:08.444Z,43.90
2022-12-26T00:44:37.371Z,47.50
2022-12-26T00:47:06.587Z,45.70
2022-12-26T00:50:15.035Z,44.50
2022-12-26T00:52:24.819Z,42.90
2022-12-26T00:54:53.907Z,42.80
2022-12-26T00:57:22.865Z,41.50
2022-12-26T00:59:51.868Z,38.20
2022-12-26T01:02:39.525Z,43.60
2022-12-26T01:05:12.283Z,43.30
2022-12-26T01:08:22.542Z,40.70
2022-12-26T01:10:31.047Z,39.60
2022-12-26T01:13:00.668Z,37.10
2022-12-26T01:15:30.562Z,38.30
2022-12-26T01:18:00.543Z,42.30
2022-12-26T01:20:29.729Z,43.20
2022-12-26T01:22:58.785Z,42.00
2022-12-26T01:25:27.844Z,38.50
2022-12-26T01:27:56.881Z,38.00
2022-12-26T01:30:25.818Z,38.80
2022-12-26T01:32:54.824Z,42.10
2022-12-26T01:35:24.794Z,40.80
2022-12-26T01:37:53.893Z,40.50
2022-12-26T01:40:22.995Z,36.90
2022-12-26T01:42:52.051Z,34.20
2022-12-26T01:45:32.579Z,38.00
2022-12-26T01:48:26.103Z,31.80
2022-12-26T01:51:03.815Z,36.20
2022-12-26T01:53:41.508Z,30.70
2022-12-26T01:56:20.559Z,35.50
2022-12-26T01:59:06.420Z,35.70
2022-12-26T02:01:39.195Z,36.10
2022-12-26T02:04:34.389Z,32.10
2022-12-26T02:07:05.856Z,40.70
2022-12-26T02:09:36.263Z,35.60
2022-12-26T02:12:37.113Z,38.10
2022-12-26T02:15:15.656Z,34.60
2022-12-26T02:17:45.191Z,36.00
2022-12-26T02:20:41.098Z,29.50
2022-12-26T02:24:00.680Z,35.00
2022-12-26T02:27:02.926Z,34.90
2022-12-26T02:29:50.289Z,28.40
2022-12-26T02:32:26.903Z,29.30
2022-12-26T02:35:37.108Z,29.60
2022-12-26T02:38:15.245Z,26.10
2022-12-26T02:41:14.627Z,28.40
2022-12-26T02:44:55.423Z,30.30
2022-12-26T02:47:55.110Z,28.90
2022-12-26T02:51:07.285Z,26.50
2022-12-26T02:54:26.527Z,30.60
2022-12-26T02:57:27.474Z,26.50
2022-12-26T03:00:32.119Z,33.50
2022-12-26T03:03:44.143Z,24.20
2022-12-26T03:06:40.956Z,24.90
2022-12-26T03:09:35.346Z,27.50
2022-12-26T03:12:49.559Z,22.90
2022-12-26T03:15:22.472Z,27.20
2022-12-26T03:17:58.921Z,22.00
2022-12-26T03:20:35.997Z,23.80
2022-12-26T03:23:11.313Z,21.30
2022-12-26T03:26:23.142Z,23.40
2022-12-26T03:28:52.434Z,19.40
2022-12-26T03:31:21.438Z,20.50
2022-12-26T03:34:08.833Z,21.10
2022-12-26T03:36:51.835Z,23.60
2022-12-26T03:40:08.154Z,20.00
2022-12-26T03:43:08.778Z,20.90
2022-12-26T03:46:42.108Z,22.50
2022-12-26T03:49:47.512Z,19.20
2022-12-26T03:52:42.974Z,22.70
2022-12-26T03:55:42.814Z,22.10
2022-12-26T03:59:15.259Z,22.60
2022-12-26T04:02:05.605Z,21.50
2022-12-26T04:04:58.589Z,22.30
2022-12-26T04:08:02.140Z,21.70
2022-12-26T04:11:03.675Z,21.80
2022-12-26T04:14:07.161Z,22.80
2022-12-26T04:17:04.093Z,20.70
2022-12-26T04:19:54.806Z,20.60
2022-12-26T04:23:11.599Z,19.30
2022-12-26T04:26:24.283Z,19.50
2022-12-26T04:32:23.660Z,18.50
2022-12-26T04:35:22.726Z,23.80
2022-12-26T04:38:14.058Z,19.90
2022-12-26T04:41:08.433Z,22.80
2022-12-26T04:43:57.479Z,21.00
2022-12-26T04:46:27.688Z,22.80
2022-12-26T04:49:16.785Z,19.50
2022-12-26T04:51:45.793Z,20.90
2022-12-26T04:54:14.910Z,19.00
2022-12-26T04:56:43.920Z,18.70
2022-12-26T04:59:16.100Z,18.80
2022-12-26T05:02:04.054Z,20.60
2022-12-26T05:04:51.782Z,18.00
2022-12-26T05:07:44.203Z,17.30
2022-12-26T05:12:51.722Z,20.50
2022-12-26T05:15:21.461Z,18.60
2022-12-26T05:18:09.499Z,24.70
2022-12-26T05:20:46.339Z,26.90
2022-12-26T05:23:46.194Z,17.30
2022-12-26T05:26:41.777Z,19.30
2022-12-26T05:29:10.895Z,20.60
2022-12-26T05:31:40.133Z,22.90
2022-12-26T05:34:14.078Z,21.40
2022-12-26T05:36:53.509Z,19.10
2022-12-26T05:39:23.427Z,18.50
2022-12-26T05:41:53.390Z,18.10
2022-12-26T05:44:22.318Z,16.90
2022-12-26T05:46:51.386Z,14.50
2022-12-26T05:49:20.475Z,22.00
2022-12-26T05:51:50.795Z,14.20
2022-12-26T05:54:19.802Z,14.50
2022-12-26T05:56:49.811Z,22.00
2022-12-26T05:59:18.981Z,19.50
2022-12-26T06:01:48.058Z,19.60
2022-12-26T06:04:17.235Z,24.20
2022-12-26T06:06:46.200Z,24.80
2022-12-26T06:09:15.292Z,34.60
2022-12-26T06:11:48.822Z,27.20
2022-12-26T06:14:18.264Z,29.50
2022-12-26T06:16:47.299Z,24.70
2022-12-26T06:19:16.522Z,24.90
2022-12-26T06:21:45.496Z,22.50
2022-12-26T06:24:14.524Z,21.60
2022-12-26T06:26:43.492Z,15.60
2022-12-26T06:29:12.528Z,16.20
2022-12-26T06:31:41.574Z,16.00
2022-12-26T06:34:11.011Z,14.00
2022-12-26T06:36:40.279Z,18.30
2022-12-26T06:39:09.250Z,14.80
2022-12-26T06:41:38.352Z,15.00
2022-12-26T06:44:10.508Z,19.90
2022-12-26T06:46:42.391Z,14.20
2022-12-26T06:49:13.911Z,14.40
2022-12-26T06:51:45.224Z,15.10
2022-12-26T06:54:14.235Z,13.30
2022-12-26T06:56:43.290Z,13.50
2022-12-26T06:59:12.662Z,14.70
2022-12-26T07:01:41.855Z,15.00
2022-12-26T07:04:12.991Z,14.30
2022-12-26T07:06:42.216Z,13.70
2022-12-26T07:09:16.970Z,16.70
2022-12-26T07:11:50.179Z,13.60
2022-12-26T07:14:22.092Z,14.90
2022-12-26T07:19:20.472Z,14.00
2022-12-26T07:21:49.775Z,15.40
2022-12-26T07:24:22.415Z,14.40
2022-12-26T07:26:51.764Z,16.20
2022-12-26T07:29:22.108Z,14.90
2022-12-26T07:31:51.258Z,15.20
2022-12-26T07:34:20.348Z,20.60
2022-12-26T07:36:55.238Z,17.00
2022-12-26T07:39:24.990Z,17.50
2022-12-26T07:41:59.780Z,15.60
2022-12-26T07:44:32.232Z,15.10
2022-12-26T07:47:01.792Z,15.00
2022-12-26T07:49:30.888Z,17.30
2022-12-26T07:52:00.205Z,16.80
2022-12-26T07:54:30.195Z,18.20
2022-12-26T07:57:21.934Z,23.00
2022-12-26T07:59:51.992Z,18.30
2022-12-26T08:02:24.772Z,20.50
2022-12-26T08:04:54.050Z,25.10
2022-12-26T08:07:23.473Z,20.40
2022-12-26T08:09:52.497Z,19.90
2022-12-26T08:12:24.775Z,18.20
2022-12-26T08:14:53.808Z,18.80
2022-12-26T08:17:22.833Z,17.00
2022-12-26T08:19:51.924Z,18.00
2022-12-26T08:22:20.980Z,18.70
2022-12-26T08:24:50.076Z,23.00
2022-12-26T08:27:19.350Z,16.40
2022-12-26T08:29:49.149Z,16.90
2022-12-26T08:32:18.209Z,17.80
2022-12-26T08:34:47.375Z,20.00
2022-12-26T08:37:16.474Z,20.80
2022-12-26T08:39:45.501Z,18.80
2022-12-26T08:42:14.600Z,18.60
2022-12-26T08:44:43.601Z,21.90
2022-12-26T08:47:13.308Z,26.80
2022-12-26T08:49:42.337Z,29.70
2022-12-26T08:52:11.365Z,20.30
2022-12-26T08:54:40.288Z,18.20
2022-12-26T08:57:10.205Z,19.20
2022-12-26T08:59:39.248Z,15.80
2022-12-26T09:02:11.912Z,16.50
2022-12-26T09:04:41.066Z,16.50
2022-12-26T09:07:10.326Z,17.30
2022-12-26T09:09:40.010Z,18.10
2022-12-26T09:12:09.074Z,25.20
2022-12-26T09:14:38.034Z,22.90
2022-12-26T09:17:07.117Z,18.30
2022-12-26T09:19:36.879Z,17.90
2022-12-26T09:22:24.847Z,17.50
2022-12-26T09:24:53.827Z,18.60
2022-12-26T09:27:23.881Z,19.40
2022-12-26T09:29:52.833Z,16.60
2022-12-26T09:32:21.794Z,14.80
2022-12-26T09:34:50.782Z,15.80
2022-12-26T09:37:19.881Z,21.90
2022-12-26T09:39:48.868Z,25.90
2022-12-26T09:42:27.693Z,20.10
2022-12-26T09:45:16.798Z,14.50
2022-12-26T09:48:00.805Z,14.50
2022-12-26T09:50:42.907Z,16.50
2022-12-26T09:53:37.226Z,17.20
2022-12-26T09:56:23.637Z,16.10
2022-12-26T09:59:46.349Z,15.40
2022-12-26T10:02:22.598Z,15.50
2022-12-26T10:04:53.944Z,17.10
2022-12-26T10:07:38.265Z,15.10
2022-12-26T10:10:14.513Z,18.30
2022-12-26T10:13:39.536Z,16.10
2022-12-26T10:17:04.126Z,20.70
2022-12-26T10:20:07.566Z,14.40
2022-12-26T10:23:19.395Z,22.80
2022-12-26T10:26:20.307Z,18.50
2022-12-26T10:29:32.098Z,29.00
2022-12-26T10:32:11.103Z,18.30
2022-12-26T10:34:50.557Z,16.90
2022-12-26T10:37:47.671Z,19.40
2022-12-26T10:40:52.083Z,18.60
2022-12-26T10:43:21.103Z,21.30
2022-12-26T10:46:36.823Z,26.00
2022-12-26T10:49:12.307Z,18.10
2022-12-26T10:51:41.392Z,12.60
2022-12-26T10:54:20.346Z,14.40
2022-12-26T10:56:52.302Z,16.20
2022-12-26T11:07:19.559Z,17.70
2022-12-26T11:09:56.020Z,17.10
2022-12-26T11:12:50.563Z,15.80
2022-12-26T11:15:50.025Z,14.50
2022-12-26T11:18:54.859Z,14.10
2022-12-26T11:21:30.455Z,14.10
2022-12-26T11:24:08.548Z,11.60
2022-12-26T11:26:38.927Z,16.00
2022-12-26T11:29:24.547Z,16.50
2022-12-26T11:32:03.136Z,13.30
2022-12-26T11:34:46.357Z,9.50
2022-12-26T11:37:40.988Z,9.20
2022-12-26T11:40:28.208Z,26.10
2022-12-26T11:43:00.685Z,12.60
2022-12-26T11:45:38.553Z,12.70
2022-12-26T11:48:23.287Z,93.60
2022-12-26T11:50:54.212Z,20.60
2022-12-26T11:53:23.542Z,25.50
2022-12-26T11:56:05.508Z,30.70
2022-12-26T12:01:12.134Z,17.70
2022-12-26T12:03:49.584Z,13.90
2022-12-26T12:07:08.361Z,14.60
2022-12-26T12:09:59.605Z,18.20
2022-12-26T12:12:56.358Z,18.60
2022-12-26T12:15:42.021Z,23.10
2022-12-26T12:18:52.887Z,20.30
2022-12-26T12:21:44.083Z,19.00
2022-12-26T12:24:57.047Z,17.60
2022-12-26T12:27:56.215Z,17.10
2022-12-26T12:31:11.121Z,16.20
2022-12-26T12:33:56.645Z,14.70
2022-12-26T12:36:52.626Z,17.50
2022-12-26T12:39:46.296Z,17.90
2022-12-26T12:42:39.741Z,23.20
2022-12-26T12:45:28.985Z,40.10
2022-12-26T12:48:22.372Z,51.00
2022-12-26T12:51:03.715Z,19.50
2022-12-26T12:54:00.396Z,32.50
2022-12-26T12:56:48.094Z,31.10
2022-12-26T12:59:39.124Z,17.50
2022-12-26T13:02:28.309Z,21.10
2022-12-26T13:05:11.831Z,16.40
2022-12-26T13:07:47.634Z,16.60
2022-12-26T13:10:27.936Z,16.60
2022-12-26T13:12:59.199Z,23.60
2022-12-26T13:15:44.567Z,22.90
2022-12-26T13:18:23.889Z,26.20
2022-12-26T13:21:05.399Z,22.80
2022-12-26T13:24:09.370Z,24.60
2022-12-26T13:26:53.909Z,25.00
2022-12-26T13:29:48.309Z,24.30
2022-12-26T13:32:32.159Z,21.60
2022-12-26T13:35:04.464Z,23.40
2022-12-26T13:37:39.486Z,21.90
2022-12-26T13:40:11.583Z,24.70
2022-12-26T13:43:07.960Z,22.40
2022-12-26T13:45:43.026Z,20.40
2022-12-26T13:48:18.414Z,21.60
2022-12-26T13:50:56.065Z,22.00
2022-12-26T13:53:25.717Z,20.90
2022-12-26T13:56:27.819Z,25.10
2022-12-26T13:59:17.876Z,21.40
2022-12-26T14:02:19.402Z,25.80
2022-12-26T14:05:51.169Z,25.20
2022-12-26T14:08:51.330Z,27.50
2022-12-26T14:11:46.707Z,28.30
2022-12-26T14:14:54.362Z,27.90
2022-12-26T14:18:17.944Z,24.60
2022-12-26T14:21:58.737Z,19.50
2022-12-26T14:25:02.057Z,16.20
2022-12-26T14:28:04.324Z,15.70
2022-12-26T14:30:37.033Z,14.40
2022-12-26T14:33:38.968Z,13.40
2022-12-26T14:36:26.388Z,14.30
2022-12-26T14:39:17.561Z,13.50
2022-12-26T14:42:35.744Z,17.80
2022-12-26T14:45:33.185Z,19.10
2022-12-26T14:48:15.322Z,13.30
2022-12-26T14:50:52.210Z,11.90
2022-12-26T14:53:27.475Z,13.40
2022-12-26T14:56:10.445Z,15.00
2022-12-26T14:58:46.614Z,25.10
2022-12-26T15:01:17.195Z,20.60
2022-12-26T15:04:15.585Z,17.90
2022-12-26T15:07:32.305Z,20.40
2022-12-26T15:10:53.791Z,18.20
2022-12-26T15:14:16.708Z,29.30
2022-12-26T15:17:30.728Z,46.70
2022-12-26T15:20:38.607Z,14.50
2022-12-26T15:24:00.848Z,15.40
2022-12-26T15:26:46.477Z,13.30
2022-12-26T15:29:52.440Z,16.50
2022-12-26T15:32:51.939Z,14.40
2022-12-26T15:35:34.008Z,12.70
2022-12-26T15:38:24.637Z,18.30
2022-12-26T15:41:13.453Z,22.20
2022-12-26T15:44:26.473Z,22.70
2022-12-26T15:47:34.035Z,19.70
2022-12-26T15:50:31.057Z,16.00
2022-12-26T15:53:47.412Z,21.60
2022-12-26T15:56:58.745Z,15.70
2022-12-26T15:59:39.873Z,10.70
2022-12-26T16:02:28.087Z,14.70
2022-12-26T16:05:43.434Z,20.40
2022-12-26T16:08:46.589Z,18.50
2022-12-26T16:11:19.250Z,18.20
2022-12-26T16:13:55.903Z,19.00
2022-12-26T16:16:28.232Z,19.20
2022-12-26T16:18:59.945Z,15.80
2022-12-26T16:24:19.865Z,17.70
2022-12-26T16:26:49.041Z,18.80
2022-12-26T16:29:21.455Z,32.20
2022-12-26T16:31:50.634Z,53.20
2022-12-26T16:34:21.076Z,58.70
2022-12-26T16:36:51.370Z,45.70
2022-12-26T16:39:24.200Z,29.30
2022-12-26T16:42:07.069Z,21.00
2022-12-26T16:44:40.077Z,20.50
2022-12-26T16:47:13.407Z,16.60
2022-12-26T16:49:45.224Z,16.50
2022-12-26T16:52:45.816Z,16.10
2022-12-26T16:55:36.959Z,11.40
2022-12-26T16:58:31.265Z,12.50
2022-12-26T17:01:10.903Z,17.30
2022-12-26T17:03:52.295Z,16.40
2022-12-26T17:06:36.128Z,22.30
2022-12-26T17:09:17.064Z,18.50
2022-12-26T17:11:56.706Z,18.00
2022-12-26T17:14:32.252Z,25.00
2022-12-26T17:17:25.930Z,22.70
2022-12-26T17:19:59.066Z,23.70
2022-12-26T17:22:37.078Z,27.10
2022-12-26T17:25:21.502Z,24.60
2022-12-26T17:28:09.200Z,16.90
2022-12-26T17:30:43.721Z,12.80
2022-12-26T17:33:27.272Z,18.60
2022-12-26T17:38:53.607Z,18.80
2022-12-26T17:41:22.929Z,23.90
2022-12-26T17:43:52.975Z,27.10
2022-12-26T17:46:22.188Z,31.60
2022-12-26T17:48:51.500Z,34.90
2022-12-26T17:51:20.676Z,29.30
2022-12-26T17:53:51.912Z,49.40
2022-12-26T17:56:27.241Z,35.30
2022-12-26T17:58:56.417Z,26.10
2022-12-26T18:01:25.520Z,17.80
2022-12-26T18:03:54.896Z,14.90
2022-12-26T18:06:24.591Z,13.80
2022-12-26T18:08:53.768Z,12.90
2022-12-26T18:11:22.902Z,14.50
2022-12-26T18:13:51.926Z,17.70
2022-12-26T18:16:25.449Z,15.30
2022-12-26T18:18:54.616Z,14.90
2022-12-26T18:21:23.987Z,12.40
2022-12-26T18:23:53.620Z,15.20
2022-12-26T18:26:28.945Z,17.60
2022-12-26T18:28:59.199Z,16.20
2022-12-26T18:31:28.935Z,25.10
2022-12-26T18:33:58.661Z,22.20
2022-12-26T18:36:34.225Z,22.90
2022-12-26T18:39:04.742Z,29.00
2022-12-26T18:41:33.931Z,37.80
2022-12-26T18:44:03.633Z,13.50
2022-12-26T18:46:32.841Z,13.60
2022-12-26T18:49:01.889Z,14.00
2022-12-26T18:51:31.615Z,16.90
2022-12-26T18:54:00.587Z,15.80
2022-12-26T18:56:30.620Z,14.60
2022-12-26T18:58:59.896Z,14.70
2022-12-26T19:01:29.000Z,17.20
2022-12-26T19:03:58.524Z,17.00
2022-12-26T19:06:30.455Z,20.90
2022-12-26T19:08:59.412Z,19.50
2022-12-26T19:11:28.592Z,18.30
2022-12-26T19:14:00.814Z,17.40
2022-12-26T19:16:29.903Z,16.40
2022-12-26T19:18:58.884Z,16.30
2022-12-26T19:21:28.028Z,12.90
2022-12-26T19:23:58.694Z,14.20
2022-12-26T19:26:27.715Z,21.70
2022-12-26T19:29:00.242Z,17.20
2022-12-26T19:31:29.436Z,18.50
2022-12-26T19:33:59.013Z,22.70
2022-12-26T19:36:28.211Z,17.60
2022-12-26T19:38:57.617Z,17.60
2022-12-26T19:41:26.765Z,22.00
2022-12-26T19:43:58.757Z,18.20
2022-12-26T19:48:57.501Z,19.90
2022-12-26T19:51:26.556Z,14.10
2022-12-26T19:53:55.620Z,14.20
2022-12-26T19:56:28.562Z,14.20
2022-12-26T19:58:58.984Z,12.50
2022-12-26T20:01:32.228Z,11.30
2022-12-26T20:04:05.855Z,9.60
2022-12-26T20:06:37.500Z,14.50
2022-12-26T20:09:13.432Z,13.20
2022-12-26T20:11:49.420Z,15.10
2022-12-26T20:14:21.294Z,16.20
2022-12-26T20:17:09.683Z,17.90
2022-12-26T20:19:39.612Z,16.70
2022-12-26T20:22:08.963Z,13.50
2022-12-26T20:24:38.010Z,17.70
2022-12-26T20:27:07.142Z,16.50
2022-12-26T20:29:36.974Z,14.30
2022-12-26T20:32:06.113Z,15.10
2022-12-26T20:34:35.259Z,15.40
2022-12-26T20:37:04.589Z,14.30
2022-12-26T20:39:33.761Z,12.30
2022-12-26T20:42:02.836Z,13.80
2022-12-26T20:44:31.889Z,16.30
2022-12-26T20:47:01.078Z,17.50
2022-12-26T20:49:30.278Z,13.80
2022-12-26T20:52:00.068Z,14.30
2022-12-26T20:54:29.118Z,16.80
2022-12-26T20:56:58.166Z,15.60
2022-12-26T20:59:27.173Z,17.20
2022-12-26T21:01:56.463Z,14.80
2022-12-26T21:04:26.028Z,21.20
2022-12-26T21:06:57.645Z,30.30
2022-12-26T21:09:26.681Z,39.10
2022-12-26T21:11:56.042Z,40.00
2022-12-26T21:14:25.070Z,34.90
2022-12-26T21:16:59.230Z,27.00
2022-12-26T21:19:30.540Z,23.20
2022-12-26T21:22:00.092Z,24.90
2022-12-26T21:24:31.900Z,22.60
2022-12-26T21:27:01.198Z,24.40
2022-12-26T21:29:33.829Z,21.00
2022-12-26T21:32:03.858Z,20.70
2022-12-26T21:34:34.361Z,20.70
2022-12-26T21:37:21.746Z,22.90
2022-12-26T21:39:51.421Z,25.80
2022-12-26T21:42:20.452Z,20.40
2022-12-26T21:44:49.642Z,18.00
2022-12-26T21:47:19.054Z,21.30
2022-12-26T21:49:48.238Z,17.30
2022-12-26T21:52:17.439Z,16.30
2022-12-26T21:55:05.122Z,18.50
2022-12-26T21:57:35.254Z,15.00
2022-12-26T22:00:05.317Z,12.90
2022-12-26T22:02:56.260Z,12.60
2022-12-26T22:05:28.972Z,14.90
2022-12-26T22:08:01.281Z,14.10
2022-12-26T22:13:21.785Z,17.40
2022-12-26T22:16:03.320Z,17.80
2022-12-26T22:18:47.447Z,14.40
2022-12-26T22:21:22.329Z,15.70
2022-12-26T22:23:53.452Z,14.00
2022-12-26T22:26:24.832Z,17.90
2022-12-26T22:28:55.541Z,15.50
2022-12-26T22:31:32.425Z,13.20
2022-12-26T22:34:04.203Z,11.70
2022-12-26T22:36:34.539Z,14.50
2022-12-26T22:39:04.167Z,13.30
2022-12-26T22:41:34.573Z,17.40
2022-12-26T22:44:03.835Z,16.00
2022-12-26T22:46:32.992Z,17.20
2022-12-26T22:49:02.273Z,17.60
2022-12-26T22:51:31.371Z,17.20
2022-12-26T22:54:01.924Z,16.70
2022-12-26T22:56:32.898Z,14.10
2022-12-26T22:59:03.206Z,14.70
2022-12-26T23:01:32.413Z,15.70
2022-12-26T23:04:02.054Z,11.70
2022-12-26T23:06:35.723Z,15.60
2022-12-26T23:09:12.323Z,14.60
2022-12-26T23:11:42.071Z,15.50
2022-12-26T23:14:13.127Z,20.60
2022-12-26T23:16:52.719Z,16.90
2022-12-26T23:19:57.851Z,15.00
2022-12-26T23:22:27.711Z,14.40
2022-12-26T23:24:56.742Z,17.20
2022-12-26T23:27:44.643Z,20.40
2022-12-26T23:30:20.228Z,18.40
2022-12-26T23:32:52.564Z,15.30
2022-12-26T23:35:23.675Z,18.30
2022-12-26T23:37:53.267Z,12.60
2022-12-26T23:40:23.030Z,14.40
2022-12-26T23:42:52.055Z,13.00
2022-12-26T23:45:21.060Z,13.70
2022-12-26T23:47:50.060Z,11.10
2022-12-26T23:50:19.259Z,8.60
2022-12-26T23:52:48.228Z,10.30
2022-12-26T23:55:17.389Z,10.10
2022-12-26T23:57:46.427Z,5.20
